sensor_id;sensor_type;location;lat;lon;timestamp;pressure;altitude;pressure_sealevel;temperature;humidity
12897;BME280;6516;35.028;32.372;2023-08-30T00:00:14;99143.50;;;25.79;80.28
12897;BME280;6516;35.028;32.372;2023-08-30T00:02:43;99140.72;;;25.88;83.37
12897;BME280;6516;35.028;32.372;2023-08-30T00:05:13;99130.13;;;25.87;86.43
12897;BME280;6516;35.028;32.372;2023-08-30T00:07:41;99129.25;;;25.86;89.57
12897;BME280;6516;35.028;32.372;2023-08-30T00:10:09;99124.47;;;25.80;90.35
12897;BME280;6516;35.028;32.372;2023-08-30T00:12:37;99126.75;;;25.75;91.04
12897;BME280;6516;35.028;32.372;2023-08-30T00:15:06;99137.69;;;25.74;92.49
12897;BME280;6516;35.028;32.372;2023-08-30T00:17:35;99133.13;;;25.74;93.43
12897;BME280;6516;35.028;32.372;2023-08-30T00:20:05;99130.03;;;25.69;93.31
12897;BME280;6516;35.028;32.372;2023-08-30T00:22:36;99135.72;;;25.66;93.50
12897;BME280;6516;35.028;32.372;2023-08-30T00:25:04;99133.44;;;25.62;93.21
12897;BME280;6516;35.028;32.372;2023-08-30T00:27:32;99130.06;;;25.60;93.56
12897;BME280;6516;35.028;32.372;2023-08-30T00:30:00;99123.25;;;25.56;93.12
12897;BME280;6516;35.028;32.372;2023-08-30T00:32:28;99130.34;;;25.47;94.43
12897;BME280;6516;35.028;32.372;2023-08-30T00:34:55;99132.38;;;25.45;95.00
12897;BME280;6516;35.028;32.372;2023-08-30T00:37:23;99127.13;;;25.44;95.51
12897;BME280;6516;35.028;32.372;2023-08-30T00:39:52;99127.25;;;25.42;95.10
12897;BME280;6516;35.028;32.372;2023-08-30T00:42:20;99135.47;;;25.41;94.83
12897;BME280;6516;35.028;32.372;2023-08-30T00:44:48;99128.53;;;25.38;94.79
12897;BME280;6516;35.028;32.372;2023-08-30T00:47:16;99129.84;;;25.34;95.43
12897;BME280;6516;35.028;32.372;2023-08-30T00:49:44;99131.13;;;25.30;95.35
12897;BME280;6516;35.028;32.372;2023-08-30T00:52:12;99133.38;;;25.25;95.73
12897;BME280;6516;35.028;32.372;2023-08-30T00:54:40;99132.38;;;25.45;95.54
12897;BME280;6516;35.028;32.372;2023-08-30T00:57:09;99135.41;;;25.69;94.00
12897;BME280;6516;35.028;32.372;2023-08-30T00:59:38;99145.09;;;25.62;92.41
12897;BME280;6516;35.028;32.372;2023-08-30T01:02:06;99141.00;;;25.49;92.60
12897;BME280;6516;35.028;32.372;2023-08-30T01:04:34;99142.88;;;25.39;94.04
12897;BME280;6516;35.028;32.372;2023-08-30T01:07:02;99144.44;;;25.32;94.83
12897;BME280;6516;35.028;32.372;2023-08-30T01:09:30;99134.97;;;25.28;95.50
12897;BME280;6516;35.028;32.372;2023-08-30T01:12:02;99138.03;;;25.23;95.99
12897;BME280;6516;35.028;32.372;2023-08-30T01:14:40;99129.53;;;25.18;96.15
12897;BME280;6516;35.028;32.372;2023-08-30T01:17:14;99134.38;;;25.15;97.06
12897;BME280;6516;35.028;32.372;2023-08-30T01:19:51;99127.28;;;25.14;97.07
12897;BME280;6516;35.028;32.372;2023-08-30T01:22:32;99130.53;;;25.08;96.81
12897;BME280;6516;35.028;32.372;2023-08-30T01:25:15;99125.00;;;25.00;97.63
12897;BME280;6516;35.028;32.372;2023-08-30T01:27:50;99131.53;;;24.97;97.83
12897;BME280;6516;35.028;32.372;2023-08-30T01:30:20;99126.56;;;24.93;98.07
12897;BME280;6516;35.028;32.372;2023-08-30T01:32:48;99125.56;;;24.94;97.81
12897;BME280;6516;35.028;32.372;2023-08-30T01:35:17;99127.56;;;24.92;98.01
12897;BME280;6516;35.028;32.372;2023-08-30T01:37:46;99132.25;;;24.90;98.26
12897;BME280;6516;35.028;32.372;2023-08-30T01:40:15;99125.03;;;24.90;97.70
12897;BME280;6516;35.028;32.372;2023-08-30T01:42:44;99115.25;;;24.89;97.75
12897;BME280;6516;35.028;32.372;2023-08-30T01:45:14;99123.88;;;24.93;96.89
12897;BME280;6516;35.028;32.372;2023-08-30T01:47:43;99121.06;;;24.94;97.05
12897;BME280;6516;35.028;32.372;2023-08-30T01:50:12;99131.25;;;25.00;96.56
12897;BME280;6516;35.028;32.372;2023-08-30T01:52:40;99120.75;;;24.97;96.74
12897;BME280;6516;35.028;32.372;2023-08-30T01:55:10;99132.38;;;24.98;96.32
12897;BME280;6516;35.028;32.372;2023-08-30T01:57:38;99123.00;;;25.40;94.46
12897;BME280;6516;35.028;32.372;2023-08-30T02:00:07;99118.81;;;25.74;92.31
12897;BME280;6516;35.028;32.372;2023-08-30T02:02:37;99123.81;;;25.59;90.99
12897;BME280;6516;35.028;32.372;2023-08-30T02:05:06;99126.69;;;25.48;91.17
12897;BME280;6516;35.028;32.372;2023-08-30T02:07:38;99123.31;;;25.37;92.02
12897;BME280;6516;35.028;32.372;2023-08-30T02:10:19;99134.66;;;25.21;92.32
12897;BME280;6516;35.028;32.372;2023-08-30T02:12:53;99126.69;;;25.10;92.93
12897;BME280;6516;35.028;32.372;2023-08-30T02:15:22;99131.53;;;25.07;93.41
12897;BME280;6516;35.028;32.372;2023-08-30T02:17:53;99134.38;;;24.96;94.08
12897;BME280;6516;35.028;32.372;2023-08-30T02:20:21;99129.28;;;24.93;94.01
12897;BME280;6516;35.028;32.372;2023-08-30T02:22:50;99131.97;;;24.93;94.17
12897;BME280;6516;35.028;32.372;2023-08-30T02:25:18;99133.50;;;24.86;93.95
12897;BME280;6516;35.028;32.372;2023-08-30T02:27:49;99136.91;;;24.78;94.29
12897;BME280;6516;35.028;32.372;2023-08-30T02:30:17;99130.97;;;24.75;93.98
12897;BME280;6516;35.028;32.372;2023-08-30T02:32:45;99136.91;;;24.69;93.44
12897;BME280;6516;35.028;32.372;2023-08-30T02:35:14;99137.31;;;24.64;93.34
12897;BME280;6516;35.028;32.372;2023-08-30T02:37:42;99140.81;;;24.55;92.65
12897;BME280;6516;35.028;32.372;2023-08-30T02:40:11;99142.94;;;24.52;91.26
12897;BME280;6516;35.028;32.372;2023-08-30T02:42:39;99151.59;;;24.46;89.98
12897;BME280;6516;35.028;32.372;2023-08-30T02:45:08;99146.88;;;24.38;89.04
12897;BME280;6516;35.028;32.372;2023-08-30T02:47:36;99142.75;;;24.34;87.06
12897;BME280;6516;35.028;32.372;2023-08-30T02:50:04;99147.16;;;24.35;87.59
12897;BME280;6516;35.028;32.372;2023-08-30T02:52:34;99150.53;;;24.28;85.81
12897;BME280;6516;35.028;32.372;2023-08-30T02:55:02;99154.63;;;24.22;82.73
12897;BME280;6516;35.028;32.372;2023-08-30T02:57:30;99152.75;;;24.13;76.55
12897;BME280;6516;35.028;32.372;2023-08-30T02:59:57;99152.75;;;24.13;75.79
12897;BME280;6516;35.028;32.372;2023-08-30T03:02:25;99158.84;;;24.15;75.50
12897;BME280;6516;35.028;32.372;2023-08-30T03:04:54;99158.56;;;24.18;74.37
12897;BME280;6516;35.028;32.372;2023-08-30T03:07:22;99161.72;;;24.23;73.12
12897;BME280;6516;35.028;32.372;2023-08-30T03:09:53;99163.69;;;24.21;72.35
12897;BME280;6516;35.028;32.372;2023-08-30T03:12:21;99164.66;;;24.20;72.64
12897;BME280;6516;35.028;32.372;2023-08-30T03:14:49;99171.59;;;24.23;71.80
12897;BME280;6516;35.028;32.372;2023-08-30T03:17:17;99173.34;;;24.24;72.10
12897;BME280;6516;35.028;32.372;2023-08-30T03:19:44;99178.09;;;24.20;72.63
12897;BME280;6516;35.028;32.372;2023-08-30T03:22:12;99178.09;;;24.20;73.66
12897;BME280;6516;35.028;32.372;2023-08-30T03:24:40;99179.09;;;24.19;74.17
12897;BME280;6516;35.028;32.372;2023-08-30T03:27:09;99176.03;;;24.24;74.37
12897;BME280;6516;35.028;32.372;2023-08-30T03:29:37;99175.34;;;24.31;75.85
12897;BME280;6516;35.028;32.372;2023-08-30T03:32:05;99177.91;;;24.42;77.59
12897;BME280;6516;35.028;32.372;2023-08-30T03:34:33;99178.78;;;24.52;80.73
12897;BME280;6516;35.028;32.372;2023-08-30T03:37:01;99184.09;;;24.63;82.11
12897;BME280;6516;35.028;32.372;2023-08-30T03:39:29;99191.34;;;24.72;83.13
12897;BME280;6516;35.028;32.372;2023-08-30T03:41:57;99186.25;;;24.79;84.05
12897;BME280;6516;35.028;32.372;2023-08-30T03:44:26;99186.81;;;24.82;84.44
12897;BME280;6516;35.028;32.372;2023-08-30T03:46:54;99181.59;;;24.90;85.90
12897;BME280;6516;35.028;32.372;2023-08-30T03:49:22;99188.09;;;24.97;86.70
12897;BME280;6516;35.028;32.372;2023-08-30T03:51:50;99191.94;;;25.04;88.57
12897;BME280;6516;35.028;32.372;2023-08-30T03:54:18;99202.72;;;25.14;88.81
12897;BME280;6516;35.028;32.372;2023-08-30T03:56:45;99191.94;;;25.23;90.06
12897;BME280;6516;35.028;32.372;2023-08-30T03:59:13;99196.50;;;25.32;90.25
12897;BME280;6516;35.028;32.372;2023-08-30T04:01:43;99199.91;;;25.44;89.69
12897;BME280;6516;35.028;32.372;2023-08-30T04:04:11;99202.16;;;25.58;89.78
12897;BME280;6516;35.028;32.372;2023-08-30T04:06:40;99204.81;;;25.77;89.04
12897;BME280;6516;35.028;32.372;2023-08-30T04:09:08;99208.66;;;25.93;88.68
12897;BME280;6516;35.028;32.372;2023-08-30T04:11:36;99214.88;;;26.03;88.39
12897;BME280;6516;35.028;32.372;2023-08-30T04:14:03;99215.06;;;26.19;87.42
12897;BME280;6516;35.028;32.372;2023-08-30T04:16:31;99219.19;;;26.23;86.86
12897;BME280;6516;35.028;32.372;2023-08-30T04:19:00;99226.38;;;26.32;86.91
12897;BME280;6516;35.028;32.372;2023-08-30T04:21:28;99228.66;;;26.37;86.48
12897;BME280;6516;35.028;32.372;2023-08-30T04:23:56;99229.06;;;26.42;86.54
12897;BME280;6516;35.028;32.372;2023-08-30T04:26:24;99236.56;;;26.48;85.85
12897;BME280;6516;35.028;32.372;2023-08-30T04:28:51;99233.56;;;26.51;85.91
12897;BME280;6516;35.028;32.372;2023-08-30T04:31:19;99240.66;;;26.61;86.05
12897;BME280;6516;35.028;32.372;2023-08-30T04:33:47;99244.59;;;26.67;85.14
12897;BME280;6516;35.028;32.372;2023-08-30T04:36:16;99244.69;;;26.75;85.18
12897;BME280;6516;35.028;32.372;2023-08-30T04:38:44;99256.28;;;26.85;83.93
12897;BME280;6516;35.028;32.372;2023-08-30T04:41:12;99241.34;;;26.90;83.30
12897;BME280;6516;35.028;32.372;2023-08-30T04:43:40;99257.66;;;26.98;82.68
12897;BME280;6516;35.028;32.372;2023-08-30T04:46:07;99256.41;;;27.10;82.88
12897;BME280;6516;35.028;32.372;2023-08-30T04:48:35;99253.78;;;27.28;81.45
12897;BME280;6516;35.028;32.372;2023-08-30T04:51:04;99256.16;;;27.49;80.07
12897;BME280;6516;35.028;32.372;2023-08-30T04:53:34;99254.66;;;27.72;79.25
12897;BME280;6516;35.028;32.372;2023-08-30T04:56:10;99261.69;;;28.00;77.46
12897;BME280;6516;35.028;32.372;2023-08-30T04:58:38;99262.84;;;28.23;75.72
12897;BME280;6516;35.028;32.372;2023-08-30T05:01:06;99262.25;;;28.37;73.44
12897;BME280;6516;35.028;32.372;2023-08-30T05:03:35;99259.69;;;28.53;70.96
12897;BME280;6516;35.028;32.372;2023-08-30T05:06:03;99254.31;;;28.69;70.83
12897;BME280;6516;35.028;32.372;2023-08-30T05:08:30;99253.56;;;28.92;68.83
12897;BME280;6516;35.028;32.372;2023-08-30T05:11:00;99255.34;;;29.17;67.37
12897;BME280;6516;35.028;32.372;2023-08-30T05:13:28;99251.19;;;29.39;64.58
12897;BME280;6516;35.028;32.372;2023-08-30T05:15:56;99256.50;;;29.72;63.28
12897;BME280;6516;35.028;32.372;2023-08-30T05:18:24;99251.53;;;29.92;54.12
12897;BME280;6516;35.028;32.372;2023-08-30T05:20:52;99251.91;;;30.13;48.45
12897;BME280;6516;35.028;32.372;2023-08-30T05:23:19;99252.88;;;30.36;47.01
12897;BME280;6516;35.028;32.372;2023-08-30T05:25:49;99253.13;;;30.65;45.09
12897;BME280;6516;35.028;32.372;2023-08-30T05:28:16;99256.78;;;30.88;44.72
12897;BME280;6516;35.028;32.372;2023-08-30T05:30:44;99260.44;;;31.03;43.04
12897;BME280;6516;35.028;32.372;2023-08-30T05:33:12;99261.53;;;31.24;42.81
12897;BME280;6516;35.028;32.372;2023-08-30T05:35:40;99260.91;;;31.45;42.41
12897;BME280;6516;35.028;32.372;2023-08-30T05:38:08;99257.34;;;31.67;42.62
12897;BME280;6516;35.028;32.372;2023-08-30T05:40:36;99254.13;;;31.86;41.63
12897;BME280;6516;35.028;32.372;2023-08-30T05:43:09;99249.78;;;32.14;41.82
12897;BME280;6516;35.028;32.372;2023-08-30T05:45:37;99251.09;;;32.40;40.53
12897;BME280;6516;35.028;32.372;2023-08-30T05:48:06;99255.28;;;32.57;40.39
12897;BME280;6516;35.028;32.372;2023-08-30T05:50:33;99251.53;;;32.73;41.49
12897;BME280;6516;35.028;32.372;2023-08-30T05:53:02;99263.75;;;32.77;43.50
12897;BME280;6516;35.028;32.372;2023-08-30T05:55:30;99259.56;;;32.89;44.24
12897;BME280;6516;35.028;32.372;2023-08-30T05:57:58;99260.09;;;32.99;46.49
12897;BME280;6516;35.028;32.372;2023-08-30T06:00:28;99268.19;;;33.07;41.36
12897;BME280;6516;35.028;32.372;2023-08-30T06:02:55;99275.78;;;33.11;43.86
12897;BME280;6516;35.028;32.372;2023-08-30T06:05:23;99273.13;;;33.18;45.83
12897;BME280;6516;35.028;32.372;2023-08-30T06:07:51;99271.34;;;33.25;46.24
12897;BME280;6516;35.028;32.372;2023-08-30T06:10:19;99274.34;;;33.15;47.51
12897;BME280;6516;35.028;32.372;2023-08-30T06:12:47;99279.72;;;33.09;48.21
12897;BME280;6516;35.028;32.372;2023-08-30T06:15:15;99284.09;;;33.03;48.83
12897;BME280;6516;35.028;32.372;2023-08-30T06:17:44;99284.91;;;33.04;49.56
12897;BME280;6516;35.028;32.372;2023-08-30T06:20:12;99278.03;;;33.22;49.66
12897;BME280;6516;35.028;32.372;2023-08-30T06:22:40;99282.63;;;33.22;51.57
12897;BME280;6516;35.028;32.372;2023-08-30T06:25:08;99275.03;;;33.17;51.91
12897;BME280;6516;35.028;32.372;2023-08-30T06:27:42;99293.38;;;33.09;52.56
12897;BME280;6516;35.028;32.372;2023-08-30T06:30:22;99291.41;;;33.17;53.13
12897;BME280;6516;35.028;32.372;2023-08-30T06:32:51;99296.88;;;33.17;52.70
12897;BME280;6516;35.028;32.372;2023-08-30T06:35:19;99297.31;;;33.21;53.78
12897;BME280;6516;35.028;32.372;2023-08-30T06:37:46;99304.09;;;33.39;54.11
12897;BME280;6516;35.028;32.372;2023-08-30T06:40:14;99302.34;;;33.03;55.31
12897;BME280;6516;35.028;32.372;2023-08-30T06:42:42;99301.47;;;33.17;55.13
12897;BME280;6516;35.028;32.372;2023-08-30T06:45:11;99307.28;;;33.14;55.31
12897;BME280;6516;35.028;32.372;2023-08-30T06:47:39;99304.47;;;33.22;54.74
12897;BME280;6516;35.028;32.372;2023-08-30T06:50:09;99303.94;;;33.12;55.17
12897;BME280;6516;35.028;32.372;2023-08-30T06:52:37;99304.88;;;32.90;55.52
12897;BME280;6516;35.028;32.372;2023-08-30T06:55:05;99307.47;;;33.27;55.80
12897;BME280;6516;35.028;32.372;2023-08-30T06:57:33;99314.41;;;33.58;54.16
12897;BME280;6516;35.028;32.372;2023-08-30T07:00:01;99308.66;;;33.74;53.94
12897;BME280;6516;35.028;32.372;2023-08-30T07:02:34;99299.41;;;33.90;53.28
12897;BME280;6516;35.028;32.372;2023-08-30T07:05:04;99306.22;;;34.01;52.65
12897;BME280;6516;35.028;32.372;2023-08-30T07:07:34;99303.56;;;34.07;52.01
12897;BME280;6516;35.028;32.372;2023-08-30T07:10:02;99308.84;;;33.73;53.11
12897;BME280;6516;35.028;32.372;2023-08-30T07:12:30;99310.50;;;34.10;52.96
12897;BME280;6516;35.028;32.372;2023-08-30T07:14:58;99315.66;;;34.19;52.49
12897;BME280;6516;35.028;32.372;2023-08-30T07:17:26;99316.19;;;34.29;51.43
12897;BME280;6516;35.028;32.372;2023-08-30T07:19:54;99313.31;;;34.37;50.75
12897;BME280;6516;35.028;32.372;2023-08-30T07:22:22;99308.34;;;34.47;51.37
12897;BME280;6516;35.028;32.372;2023-08-30T07:24:51;99322.75;;;34.62;50.86
12897;BME280;6516;35.028;32.372;2023-08-30T07:27:19;99321.53;;;34.71;50.80
12897;BME280;6516;35.028;32.372;2023-08-30T07:29:47;99318.00;;;34.77;49.65
12897;BME280;6516;35.028;32.372;2023-08-30T07:32:15;99315.63;;;35.02;49.84
12897;BME280;6516;35.028;32.372;2023-08-30T07:34:43;99321.66;;;34.84;49.49
12897;BME280;6516;35.028;32.372;2023-08-30T07:37:18;99323.91;;;35.15;49.90
12897;BME280;6516;35.028;32.372;2023-08-30T07:39:46;99329.28;;;34.95;49.86
12897;BME280;6516;35.028;32.372;2023-08-30T07:42:16;99324.75;;;35.09;48.88
12897;BME280;6516;35.028;32.372;2023-08-30T07:44:43;99337.19;;;35.11;48.92
12897;BME280;6516;35.028;32.372;2023-08-30T07:47:11;99336.53;;;35.03;49.77
12897;BME280;6516;35.028;32.372;2023-08-30T07:49:39;99344.34;;;35.12;50.38
12897;BME280;6516;35.028;32.372;2023-08-30T07:52:07;99351.19;;;34.95;49.33
12897;BME280;6516;35.028;32.372;2023-08-30T07:54:37;99341.88;;;34.83;50.19
12897;BME280;6516;35.028;32.372;2023-08-30T07:57:07;99355.78;;;34.88;50.66
12897;BME280;6516;35.028;32.372;2023-08-30T07:59:37;99346.56;;;34.96;50.35
12897;BME280;6516;35.028;32.372;2023-08-30T08:02:06;99354.34;;;35.26;49.96
12897;BME280;6516;35.028;32.372;2023-08-30T08:04:34;99352.72;;;35.04;50.16
12897;BME280;6516;35.028;32.372;2023-08-30T08:07:02;99350.91;;;35.18;49.90
12897;BME280;6516;35.028;32.372;2023-08-30T08:09:31;99350.00;;;35.45;49.82
12897;BME280;6516;35.028;32.372;2023-08-30T08:11:59;99354.41;;;35.39;48.88
12897;BME280;6516;35.028;32.372;2023-08-30T08:14:27;99362.28;;;35.21;49.17
12897;BME280;6516;35.028;32.372;2023-08-30T08:16:56;99351.09;;;35.50;49.71
12897;BME280;6516;35.028;32.372;2023-08-30T08:19:25;99352.72;;;35.38;49.43
12897;BME280;6516;35.028;32.372;2023-08-30T08:21:52;99344.59;;;35.64;49.11
12897;BME280;6516;35.028;32.372;2023-08-30T08:24:20;99344.91;;;35.95;47.83
12897;BME280;6516;35.028;32.372;2023-08-30T08:26:49;99340.88;;;35.78;47.45
12897;BME280;6516;35.028;32.372;2023-08-30T08:29:17;99340.09;;;36.04;48.13
12897;BME280;6516;35.028;32.372;2023-08-30T08:31:44;99343.88;;;36.03;47.18
12897;BME280;6516;35.028;32.372;2023-08-30T08:34:14;99334.22;;;36.26;47.59
12897;BME280;6516;35.028;32.372;2023-08-30T08:36:42;99335.47;;;36.37;47.18
12897;BME280;6516;35.028;32.372;2023-08-30T08:39:10;99329.78;;;36.64;46.87
12897;BME280;6516;35.028;32.372;2023-08-30T08:41:40;99324.91;;;36.53;46.67
12897;BME280;6516;35.028;32.372;2023-08-30T08:44:09;99321.34;;;36.59;45.84
12897;BME280;6516;35.028;32.372;2023-08-30T08:46:39;99317.53;;;36.34;44.91
12897;BME280;6516;35.028;32.372;2023-08-30T08:49:09;99304.44;;;36.43;43.74
12897;BME280;6516;35.028;32.372;2023-08-30T08:51:41;99319.41;;;36.14;46.04
12897;BME280;6516;35.028;32.372;2023-08-30T08:54:10;99299.63;;;36.32;47.06
12897;BME280;6516;35.028;32.372;2023-08-30T08:56:38;99312.25;;;36.39;46.01
12897;BME280;6516;35.028;32.372;2023-08-30T08:59:06;99303.22;;;36.26;45.18
12897;BME280;6516;35.028;32.372;2023-08-30T09:01:35;99310.38;;;36.46;46.66
12897;BME280;6516;35.028;32.372;2023-08-30T09:04:05;99297.47;;;36.47;46.73
12897;BME280;6516;35.028;32.372;2023-08-30T09:06:34;99311.41;;;36.19;46.65
12897;BME280;6516;35.028;32.372;2023-08-30T09:09:04;99306.53;;;36.15;46.02
12897;BME280;6516;35.028;32.372;2023-08-30T09:11:34;99301.09;;;36.47;45.10
12897;BME280;6516;35.028;32.372;2023-08-30T09:14:01;99311.25;;;36.27;46.38
12897;BME280;6516;35.028;32.372;2023-08-30T09:16:29;99299.41;;;36.40;44.45
12897;BME280;6516;35.028;32.372;2023-08-30T09:18:58;99296.63;;;36.14;42.72
12897;BME280;6516;35.028;32.372;2023-08-30T09:21:26;99298.09;;;35.97;41.39
12897;BME280;6516;35.028;32.372;2023-08-30T09:23:59;99298.53;;;36.00;38.04
12897;BME280;6516;35.028;32.372;2023-08-30T09:26:30;99299.56;;;35.73;39.45
12897;BME280;6516;35.028;32.372;2023-08-30T09:29:02;99307.72;;;35.60;40.43
12897;BME280;6516;35.028;32.372;2023-08-30T09:31:34;99301.84;;;35.76;41.33
12897;BME280;6516;35.028;32.372;2023-08-30T09:34:03;99291.97;;;35.82;40.65
12897;BME280;6516;35.028;32.372;2023-08-30T09:36:34;99301.66;;;35.84;38.97
12897;BME280;6516;35.028;32.372;2023-08-30T09:39:06;99301.91;;;36.02;39.40
12897;BME280;6516;35.028;32.372;2023-08-30T09:41:37;99300.03;;;36.35;40.70
12897;BME280;6516;35.028;32.372;2023-08-30T09:44:09;99294.09;;;36.77;38.57
12897;BME280;6516;35.028;32.372;2023-08-30T09:46:41;99302.56;;;36.69;39.85
12897;BME280;6516;35.028;32.372;2023-08-30T09:49:10;99309.03;;;36.94;41.09
12897;BME280;6516;35.028;32.372;2023-08-30T09:51:40;99293.16;;;37.16;41.97
12897;BME280;6516;35.028;32.372;2023-08-30T09:54:14;99304.75;;;37.11;40.66
12897;BME280;6516;35.028;32.372;2023-08-30T09:56:44;99303.66;;;37.25;43.45
12897;BME280;6516;35.028;32.372;2023-08-30T09:59:14;99306.09;;;36.89;44.75
12897;BME280;6516;35.028;32.372;2023-08-30T10:01:43;99312.41;;;36.96;45.50
12897;BME280;6516;35.028;32.372;2023-08-30T10:04:11;99306.25;;;37.07;43.57
12897;BME280;6516;35.028;32.372;2023-08-30T10:06:39;99307.34;;;37.00;43.79
12897;BME280;6516;35.028;32.372;2023-08-30T10:09:08;99309.88;;;36.95;40.94
12897;BME280;6516;35.028;32.372;2023-08-30T10:11:36;99313.72;;;36.81;43.30
12897;BME280;6516;35.028;32.372;2023-08-30T10:14:07;99315.88;;;36.46;38.64
12897;BME280;6516;35.028;32.372;2023-08-30T10:16:41;99316.28;;;36.69;39.92
12897;BME280;6516;35.028;32.372;2023-08-30T10:19:15;99308.47;;;36.66;36.05
12897;BME280;6516;35.028;32.372;2023-08-30T10:21:43;99313.94;;;36.86;36.85
12897;BME280;6516;35.028;32.372;2023-08-30T10:24:14;99309.53;;;36.72;32.31
12897;BME280;6516;35.028;32.372;2023-08-30T10:26:44;99316.25;;;36.17;36.71
12897;BME280;6516;35.028;32.372;2023-08-30T10:29:19;99325.53;;;36.16;33.01
12897;BME280;6516;35.028;32.372;2023-08-30T10:31:51;99323.88;;;36.22;38.61
12897;BME280;6516;35.028;32.372;2023-08-30T10:34:19;99316.47;;;36.29;38.33
12897;BME280;6516;35.028;32.372;2023-08-30T10:36:56;99321.97;;;36.35;39.52
12897;BME280;6516;35.028;32.372;2023-08-30T10:39:33;99318.34;;;36.09;39.69
12897;BME280;6516;35.028;32.372;2023-08-30T10:42:08;99335.66;;;35.96;43.11
12897;BME280;6516;35.028;32.372;2023-08-30T10:44:48;99326.47;;;35.70;44.86
12897;BME280;6516;35.028;32.372;2023-08-30T10:47:20;99326.22;;;35.58;45.96
12897;BME280;6516;35.028;32.372;2023-08-30T10:49:53;99314.97;;;35.94;42.57
12897;BME280;6516;35.028;32.372;2023-08-30T10:52:22;99323.00;;;35.89;43.22
12897;BME280;6516;35.028;32.372;2023-08-30T10:54:50;99329.28;;;35.89;38.66
12897;BME280;6516;35.028;32.372;2023-08-30T10:57:19;99328.44;;;35.82;39.67
12897;BME280;6516;35.028;32.372;2023-08-30T11:00:09;99335.22;;;35.39;44.82
12897;BME280;6516;35.028;32.372;2023-08-30T11:02:43;99328.75;;;35.53;44.08
12897;BME280;6516;35.028;32.372;2023-08-30T11:05:12;99348.13;;;35.52;45.24
12897;BME280;6516;35.028;32.372;2023-08-30T11:07:40;99337.75;;;35.34;38.54
12897;BME280;6516;35.028;32.372;2023-08-30T11:10:08;99333.78;;;35.43;41.69
12897;BME280;6516;35.028;32.372;2023-08-30T11:12:37;99344.75;;;35.50;41.31
12897;BME280;6516;35.028;32.372;2023-08-30T11:15:10;99343.97;;;35.22;41.09
12897;BME280;6516;35.028;32.372;2023-08-30T11:17:39;99329.00;;;35.18;38.80
12897;BME280;6516;35.028;32.372;2023-08-30T11:20:07;99337.78;;;35.41;38.54
12897;BME280;6516;35.028;32.372;2023-08-30T11:22:37;99335.84;;;35.28;40.50
12897;BME280;6516;35.028;32.372;2023-08-30T11:25:07;99319.00;;;35.38;40.55
12897;BME280;6516;35.028;32.372;2023-08-30T11:27:35;99326.38;;;35.31;35.31
12897;BME280;6516;35.028;32.372;2023-08-30T11:30:05;99332.13;;;35.49;32.85
12897;BME280;6516;35.028;32.372;2023-08-30T11:32:36;99329.44;;;35.62;37.22
12897;BME280;6516;35.028;32.372;2023-08-30T11:35:05;99338.34;;;35.77;36.17
12897;BME280;6516;35.028;32.372;2023-08-30T11:37:34;99339.19;;;35.77;38.84
12897;BME280;6516;35.028;32.372;2023-08-30T11:40:03;99330.81;;;35.38;40.25
12897;BME280;6516;35.028;32.372;2023-08-30T11:42:32;99333.78;;;35.43;42.36
12897;BME280;6516;35.028;32.372;2023-08-30T11:45:00;99333.47;;;35.25;42.49
12897;BME280;6516;35.028;32.372;2023-08-30T11:47:29;99328.09;;;35.45;41.99
12897;BME280;6516;35.028;32.372;2023-08-30T11:49:59;99332.69;;;35.38;41.33
12897;BME280;6516;35.028;32.372;2023-08-30T11:52:28;99338.34;;;34.96;44.42
12897;BME280;6516;35.028;32.372;2023-08-30T11:54:56;99329.59;;;34.52;45.82
12897;BME280;6516;35.028;32.372;2023-08-30T11:57:24;99326.78;;;34.18;46.17
12897;BME280;6516;35.028;32.372;2023-08-30T11:59:53;99330.75;;;34.15;46.17
12897;BME280;6516;35.028;32.372;2023-08-30T12:02:22;99325.03;;;33.89;46.81
12897;BME280;6516;35.028;32.372;2023-08-30T12:04:50;99334.94;;;33.54;46.65
12897;BME280;6516;35.028;32.372;2023-08-30T12:07:24;99330.81;;;33.29;49.32
12897;BME280;6516;35.028;32.372;2023-08-30T12:09:52;99326.41;;;33.43;51.11
12897;BME280;6516;35.028;32.372;2023-08-30T12:12:31;99321.47;;;33.53;50.86
12897;BME280;6516;35.028;32.372;2023-08-30T12:14:59;99325.56;;;33.28;52.35
12897;BME280;6516;35.028;32.372;2023-08-30T12:17:27;99328.84;;;33.09;51.76
12897;BME280;6516;35.028;32.372;2023-08-30T12:19:58;99332.44;;;32.95;53.87
12897;BME280;6516;35.028;32.372;2023-08-30T12:22:37;99352.88;;;32.99;51.59
12897;BME280;6516;35.028;32.372;2023-08-30T12:25:15;99340.75;;;32.87;50.93
12897;BME280;6516;35.028;32.372;2023-08-30T12:27:44;99339.03;;;32.86;51.18
12897;BME280;6516;35.028;32.372;2023-08-30T12:30:13;99341.75;;;33.15;51.38
12897;BME280;6516;35.028;32.372;2023-08-30T12:32:42;99343.63;;;33.00;52.07
12897;BME280;6516;35.028;32.372;2023-08-30T12:35:10;99345.34;;;33.01;51.13
12897;BME280;6516;35.028;32.372;2023-08-30T12:37:40;99328.19;;;33.21;53.29
12897;BME280;6516;35.028;32.372;2023-08-30T12:40:08;99345.63;;;33.06;53.43
12897;BME280;6516;35.028;32.372;2023-08-30T12:42:37;99334.03;;;33.18;50.00
12897;BME280;6516;35.028;32.372;2023-08-30T12:45:06;99340.63;;;32.95;50.57
12897;BME280;6516;35.028;32.372;2023-08-30T12:47:34;99344.31;;;32.87;49.05
12897;BME280;6516;35.028;32.372;2023-08-30T12:50:02;99338.22;;;32.63;47.41
12897;BME280;6516;35.028;32.372;2023-08-30T12:52:30;99335.72;;;32.76;47.60
12897;BME280;6516;35.028;32.372;2023-08-30T12:55:00;99345.28;;;32.72;48.00
12897;BME280;6516;35.028;32.372;2023-08-30T12:57:29;99331.94;;;32.77;48.47
12897;BME280;6516;35.028;32.372;2023-08-30T12:59:57;99334.97;;;32.82;48.85
12897;BME280;6516;35.028;32.372;2023-08-30T13:02:25;99342.63;;;32.86;50.14
12897;BME280;6516;35.028;32.372;2023-08-30T13:04:53;99341.50;;;32.95;47.03
12897;BME280;6516;35.028;32.372;2023-08-30T13:07:20;99343.53;;;32.93;48.75
12897;BME280;6516;35.028;32.372;2023-08-30T13:09:50;99342.13;;;33.12;49.75